createdAt,value
2022-10-17T00:01:26.626Z,20.72
2022-10-17T00:03:54.741Z,20.54
2022-10-17T00:06:22.774Z,20.67
2022-10-17T00:08:50.860Z,20.54
2022-10-17T00:11:22.742Z,20.26
2022-10-17T00:13:55.301Z,19.88
2022-10-17T00:16:29.613Z,19.70
2022-10-17T00:18:59.994Z,19.66
2022-10-17T00:21:28.386Z,19.51
2022-10-17T00:23:59.934Z,19.46
2022-10-17T00:26:28.454Z,19.37
2022-10-17T00:28:57.390Z,19.32
2022-10-17T00:31:28.609Z,19.28
2022-10-17T00:33:56.631Z,18.97
2022-10-17T00:36:28.429Z,18.63
2022-10-17T00:38:59.202Z,18.29
2022-10-17T00:41:33.888Z,17.79
2022-10-17T00:44:30.859Z,17.26
2022-10-17T00:47:04.381Z,16.70
2022-10-17T00:49:35.486Z,16.56
2022-10-17T00:52:11.012Z,16.34
2022-10-17T00:54:45.040Z,16.15
2022-10-17T00:57:13.102Z,16.10
2022-10-17T00:59:44.690Z,16.03
2022-10-17T01:02:20.770Z,15.91
2022-10-17T01:04:51.323Z,15.40
2022-10-17T01:07:19.388Z,15.40
2022-10-17T01:09:48.553Z,15.32
2022-10-17T01:12:53.323Z,15.00
2022-10-17T01:15:58.355Z,14.33
2022-10-17T01:18:25.979Z,14.40
2022-10-17T01:21:01.525Z,14.34
2022-10-17T01:23:55.655Z,14.22
2022-10-17T01:26:31.485Z,14.02
2022-10-17T01:29:25.561Z,14.00
2022-10-17T01:32:13.657Z,13.80
2022-10-17T01:35:25.844Z,13.62
2022-10-17T01:38:14.252Z,13.51
2022-10-17T01:40:51.905Z,13.40
2022-10-17T01:43:24.011Z,13.30
2022-10-17T01:46:06.109Z,12.83
2022-10-17T01:48:38.420Z,12.22
2022-10-17T01:51:23.590Z,12.30
2022-10-17T01:54:08.161Z,12.32
2022-10-17T01:56:38.967Z,12.31
2022-10-17T01:59:18.638Z,12.11
2022-10-17T02:01:51.692Z,11.73
2022-10-17T02:04:19.900Z,11.59
2022-10-17T02:06:47.936Z,11.20
2022-10-17T02:09:26.893Z,11.42
2022-10-17T02:12:13.046Z,11.43
2022-10-17T02:15:11.012Z,11.32
2022-10-17T02:18:16.656Z,11.29
2022-10-17T02:20:56.705Z,11.21
2022-10-17T02:23:33.300Z,11.26
2022-10-17T02:26:01.279Z,11.12
2022-10-17T02:28:48.512Z,10.86
2022-10-17T02:31:32.061Z,10.88
2022-10-17T02:34:03.983Z,10.87
2022-10-17T02:36:41.973Z,10.87
2022-10-17T02:39:16.550Z,10.69
2022-10-17T02:41:46.890Z,9.65
2022-10-17T02:44:15.745Z,10.03
2022-10-17T02:46:49.128Z,10.40
2022-10-17T02:49:24.218Z,10.46
2022-10-17T02:52:05.485Z,10.29
2022-10-17T02:55:05.640Z,10.35
2022-10-17T02:58:00.684Z,10.08
2022-10-17T03:00:30.723Z,9.71
2022-10-17T03:02:58.773Z,9.40
2022-10-17T03:05:30.214Z,9.28
2022-10-17T03:08:01.155Z,9.25
2022-10-17T03:10:29.214Z,9.06
2022-10-17T03:13:00.155Z,9.07
2022-10-17T03:15:31.091Z,9.13
2022-10-17T03:17:59.070Z,9.01
2022-10-17T03:20:27.202Z,9.17
2022-10-17T03:22:55.404Z,9.18
2022-10-17T03:25:23.462Z,9.26
2022-10-17T03:27:51.472Z,9.36
2022-10-17T03:30:20.575Z,9.23
2022-10-17T03:32:51.193Z,9.19
2022-10-17T03:35:19.343Z,9.20
2022-10-17T03:37:47.411Z,9.15
2022-10-17T03:40:17.939Z,9.04
2022-10-17T03:42:46.005Z,8.99
2022-10-17T03:45:14.034Z,8.89
2022-10-17T03:47:42.108Z,8.82
2022-10-17T03:50:10.427Z,8.74
2022-10-17T03:52:38.493Z,8.61
2022-10-17T03:55:07.039Z,8.48
2022-10-17T03:57:42.163Z,8.45
2022-10-17T04:00:16.271Z,8.32
2022-10-17T04:02:44.311Z,8.03
2022-10-17T04:05:15.211Z,8.01
2022-10-17T04:07:43.264Z,7.95
2022-10-17T04:10:11.441Z,6.83
2022-10-17T04:12:39.737Z,6.81
2022-10-17T04:15:10.964Z,7.27
2022-10-17T04:17:38.999Z,7.29
2022-10-17T04:20:07.544Z,7.39
2022-10-17T04:22:35.659Z,7.51
2022-10-17T04:25:03.676Z,7.40
2022-10-17T04:27:31.874Z,7.49
2022-10-17T04:29:59.943Z,7.56
2022-10-17T04:32:31.147Z,7.57
2022-10-17T04:34:59.340Z,7.63
2022-10-17T04:37:30.343Z,7.54
2022-10-17T04:39:59.135Z,7.48
2022-10-17T04:42:27.493Z,7.36
2022-10-17T04:44:59.075Z,7.32
2022-10-17T04:47:27.165Z,7.31
2022-10-17T04:49:58.114Z,7.09
2022-10-17T04:52:26.577Z,6.66
2022-10-17T04:54:54.917Z,6.57
2022-10-17T04:57:22.941Z,6.59
2022-10-17T04:59:50.989Z,6.59
2022-10-17T05:02:21.457Z,6.61
2022-10-17T05:04:49.450Z,6.70
2022-10-17T05:07:17.434Z,6.63
2022-10-17T05:09:45.464Z,6.57
2022-10-17T05:12:15.886Z,6.40
2022-10-17T05:14:46.954Z,6.39
2022-10-17T05:17:15.006Z,6.56
2022-10-17T05:19:43.091Z,6.51
2022-10-17T05:22:11.167Z,6.46
2022-10-17T05:24:39.156Z,6.47
2022-10-17T05:27:07.157Z,6.50
2022-10-17T05:29:36.395Z,6.37
2022-10-17T05:32:04.477Z,6.27
2022-10-17T05:34:32.461Z,6.18
2022-10-17T05:37:05.707Z,6.15
2022-10-17T05:39:36.437Z,6.23
2022-10-17T05:42:08.109Z,6.27
2022-10-17T05:44:36.136Z,6.18
2022-10-17T05:47:04.147Z,6.05
2022-10-17T05:49:40.092Z,5.56
2022-10-17T05:52:14.220Z,5.26
2022-10-17T05:54:42.276Z,5.10
2022-10-17T05:57:10.342Z,5.11
2022-10-17T05:59:39.360Z,5.35
2022-10-17T06:02:10.615Z,5.52
2022-10-17T06:04:38.630Z,5.56
2022-10-17T06:07:06.667Z,5.52
2022-10-17T06:09:37.054Z,5.52
2022-10-17T06:12:05.271Z,5.48
2022-10-17T06:14:33.331Z,5.57
2022-10-17T06:17:04.026Z,4.60
2022-10-17T06:19:32.106Z,4.90
2022-10-17T06:22:00.133Z,5.27
2022-10-17T06:24:30.695Z,5.34
2022-10-17T06:26:58.719Z,5.48
2022-10-17T06:29:26.843Z,5.34
2022-10-17T06:31:54.836Z,5.29
2022-10-17T06:34:25.443Z,5.40
2022-10-17T06:39:30.095Z,5.34
2022-10-17T06:42:01.824Z,5.26
2022-10-17T06:44:29.838Z,5.34
2022-10-17T06:47:01.043Z,5.28
2022-10-17T06:49:32.088Z,5.03
2022-10-17T06:52:02.970Z,5.11
2022-10-17T06:54:31.008Z,5.05
2022-10-17T06:57:01.372Z,4.78
2022-10-17T06:59:29.416Z,4.23
2022-10-17T07:01:57.469Z,4.27
2022-10-17T07:04:28.245Z,4.13
2022-10-17T07:09:36.895Z,4.37
2022-10-17T07:12:05.173Z,4.26
2022-10-17T07:14:33.217Z,4.26
2022-10-17T07:17:01.398Z,4.22
2022-10-17T07:19:29.472Z,4.21
2022-10-17T07:21:59.928Z,4.21
2022-10-17T07:24:28.064Z,4.12
2022-10-17T07:26:56.050Z,4.25
2022-10-17T07:29:24.075Z,4.48
2022-10-17T07:31:52.062Z,4.71
2022-10-17T07:34:25.139Z,4.43
2022-10-17T07:36:53.117Z,4.36
2022-10-17T07:39:21.124Z,4.31
2022-10-17T07:41:50.689Z,4.22
2022-10-17T07:44:18.760Z,4.09
2022-10-17T07:46:46.825Z,3.65
2022-10-17T07:49:15.040Z,3.39
2022-10-17T07:51:43.248Z,3.44
2022-10-17T07:54:11.323Z,3.46
2022-10-17T07:56:41.996Z,3.42
2022-10-17T07:59:12.274Z,3.21
2022-10-17T08:01:40.301Z,2.90
2022-10-17T08:04:11.329Z,3.09
2022-10-17T08:06:39.324Z,3.08
2022-10-17T08:09:07.398Z,3.19
2022-10-17T08:11:35.484Z,3.29
2022-10-17T08:14:05.852Z,3.35
2022-10-17T08:16:33.893Z,3.50
2022-10-17T08:19:02.705Z,3.40
2022-10-17T08:21:31.194Z,3.18
2022-10-17T08:24:04.400Z,2.66
2022-10-17T08:26:32.400Z,2.90
2022-10-17T08:29:00.522Z,3.00
2022-10-17T08:31:28.798Z,3.23
2022-10-17T08:33:59.138Z,2.98
2022-10-17T08:36:30.260Z,3.10
2022-10-17T08:38:58.266Z,3.31
2022-10-17T08:41:44.106Z,3.42
2022-10-17T08:44:39.420Z,3.52
2022-10-17T08:47:13.820Z,3.55
2022-10-17T08:49:49.048Z,3.51
2022-10-17T08:52:29.043Z,3.42
2022-10-17T08:54:57.279Z,3.40
2022-10-17T08:57:25.355Z,3.07
2022-10-17T08:59:56.362Z,3.30
2022-10-17T09:02:42.647Z,3.09
2022-10-17T09:05:32.054Z,3.53
2022-10-17T09:08:14.677Z,3.61
2022-10-17T09:10:48.500Z,3.54
2022-10-17T09:13:31.125Z,2.96
2022-10-17T09:16:25.966Z,2.26
2022-10-17T09:19:08.166Z,2.56
2022-10-17T09:22:17.330Z,2.45
2022-10-17T09:24:50.620Z,2.14
2022-10-17T09:27:45.171Z,2.35
2022-10-17T09:30:44.253Z,2.43
2022-10-17T09:33:34.880Z,2.45
2022-10-17T09:36:16.848Z,2.50
2022-10-17T09:39:13.414Z,2.47
2022-10-17T09:41:48.235Z,2.29
2022-10-17T09:44:38.657Z,2.36
2022-10-17T09:47:21.559Z,2.49
2022-10-17T09:49:50.475Z,2.60
2022-10-17T09:52:41.211Z,2.51
2022-10-17T09:55:47.522Z,2.48
2022-10-17T09:58:15.740Z,2.63
2022-10-17T10:00:48.569Z,2.62
2022-10-17T10:03:20.920Z,2.45
2022-10-17T10:06:07.383Z,1.90
2022-10-17T10:08:38.820Z,1.74
2022-10-17T10:11:13.806Z,1.87
2022-10-17T10:13:43.558Z,1.96
2022-10-17T10:16:30.693Z,1.91
2022-10-17T10:18:59.360Z,1.95
2022-10-17T10:21:28.490Z,2.02
2022-10-17T10:24:14.946Z,1.96
2022-10-17T10:26:53.178Z,2.03
2022-10-17T10:29:27.339Z,2.28
2022-10-17T10:31:55.464Z,2.24
2022-10-17T10:34:31.466Z,2.29
2022-10-17T10:37:06.408Z,2.37
2022-10-17T10:39:40.379Z,2.46
2022-10-17T10:42:19.820Z,2.35
2022-10-17T10:44:48.881Z,2.47
2022-10-17T10:47:18.599Z,2.28
2022-10-17T10:49:47.435Z,2.21
2022-10-17T10:52:41.229Z,2.25
2022-10-17T10:55:30.523Z,2.17
2022-10-17T10:58:04.225Z,2.17
2022-10-17T11:00:38.312Z,2.17
2022-10-17T11:03:21.899Z,2.11
2022-10-17T11:06:00.891Z,2.13
2022-10-17T11:08:39.167Z,2.08
2022-10-17T11:11:27.250Z,2.03
2022-10-17T11:14:20.087Z,1.95
2022-10-17T11:16:48.126Z,1.52
2022-10-17T11:19:45.163Z,1.54
2022-10-17T11:22:28.164Z,1.34
2022-10-17T11:24:59.592Z,1.16
2022-10-17T11:27:30.394Z,1.11
2022-10-17T11:29:59.697Z,1.14
2022-10-17T11:32:46.083Z,1.09
2022-10-17T11:35:28.922Z,1.23
2022-10-17T11:38:26.914Z,0.94
2022-10-17T11:40:58.680Z,1.16
2022-10-17T11:43:41.549Z,1.55
2022-10-17T11:46:29.462Z,1.55
2022-10-17T11:49:20.224Z,1.48
2022-10-17T11:52:26.949Z,1.49
2022-10-17T11:55:18.953Z,1.90
2022-10-17T11:57:49.849Z,1.86
2022-10-17T12:00:41.667Z,1.67
2022-10-17T12:03:19.405Z,1.17
2022-10-17T12:05:50.178Z,1.29
2022-10-17T12:08:29.130Z,1.30
2022-10-17T12:11:35.695Z,1.34
2022-10-17T12:14:35.266Z,1.39
2022-10-17T12:17:04.796Z,1.44
2022-10-17T12:19:37.922Z,1.15
2022-10-17T12:22:26.914Z,1.15
2022-10-17T12:25:03.466Z,0.98
2022-10-17T12:27:48.907Z,1.03
2022-10-17T12:30:28.318Z,1.05
2022-10-17T12:33:11.138Z,1.06
2022-10-17T12:35:39.863Z,1.02
2022-10-17T12:38:19.313Z,0.99
2022-10-17T12:40:49.017Z,1.21
2022-10-17T12:43:17.161Z,1.26
2022-10-17T12:45:50.059Z,1.35
2022-10-17T12:48:38.710Z,1.40
2022-10-17T12:51:34.785Z,1.32
2022-10-17T12:54:09.921Z,1.35
2022-10-17T12:56:46.637Z,1.30
2022-10-17T12:59:29.677Z,1.21
2022-10-17T13:02:06.788Z,1.18
2022-10-17T13:04:40.554Z,1.14
2022-10-17T13:07:16.509Z,1.06
2022-10-17T13:09:45.585Z,0.33
2022-10-17T13:12:24.318Z,0.24
2022-10-17T13:14:58.319Z,0.40
2022-10-17T13:17:31.325Z,0.55
2022-10-17T13:19:59.883Z,0.45
2022-10-17T13:22:33.468Z,0.29
2022-10-17T13:25:10.993Z,0.49
2022-10-17T13:27:39.016Z,0.46
2022-10-17T13:30:32.331Z,0.71
2022-10-17T13:33:01.641Z,0.91
2022-10-17T13:35:58.892Z,0.65
2022-10-17T13:38:29.017Z,0.73
2022-10-17T13:41:05.851Z,1.38
2022-10-17T13:43:39.269Z,1.26
2022-10-17T13:46:32.317Z,1.11
2022-10-17T13:48:59.018Z,0.75
2022-10-17T13:51:28.416Z,0.50
2022-10-17T13:53:56.600Z,0.19
2022-10-17T13:56:29.786Z,0.34
2022-10-17T13:59:00.186Z,0.06
2022-10-17T14:01:30.917Z,0.02
2022-10-17T14:04:19.595Z,0.23
2022-10-17T14:06:49.630Z,0.23
2022-10-17T14:09:22.821Z,0.31
2022-10-17T14:12:01.980Z,0.42
2022-10-17T14:14:41.473Z,0.34
2022-10-17T14:17:30.160Z,0.70
2022-10-17T14:20:40.362Z,0.74
2022-10-17T14:23:21.103Z,0.35
2022-10-17T14:25:42.714Z,0.39
2022-10-17T14:28:13.485Z,0.35
2022-10-17T14:30:56.128Z,0.40
2022-10-17T14:33:29.258Z,0.69
2022-10-17T14:35:59.515Z,0.68
2022-10-17T14:38:29.323Z,0.32
2022-10-17T14:44:08.467Z,0.25
2022-10-17T14:46:37.643Z,0.55
2022-10-17T14:49:24.548Z,0.60
2022-10-17T14:52:13.710Z,0.69
2022-10-17T14:54:50.428Z,0.74
2022-10-17T14:57:23.853Z,0.89
2022-10-17T14:59:54.694Z,1.02
2022-10-17T15:02:29.105Z,1.02
2022-10-17T15:04:57.483Z,1.12
2022-10-17T15:07:25.461Z,1.14
2022-10-17T15:09:54.335Z,1.06
2022-10-17T15:12:26.320Z,1.02
2022-10-17T15:14:54.867Z,1.14
2022-10-17T15:17:30.762Z,1.04
2022-10-17T15:19:59.406Z,1.13
2022-10-17T15:22:27.857Z,1.38
2022-10-17T15:24:56.079Z,1.32
2022-10-17T15:27:25.603Z,1.51
2022-10-17T15:29:53.659Z,1.62
2022-10-17T15:32:21.834Z,1.70
2022-10-17T15:34:50.385Z,2.00
2022-10-17T15:37:24.015Z,2.24
2022-10-17T15:39:55.976Z,2.16
2022-10-17T15:42:30.400Z,2.24
2022-10-17T15:45:01.412Z,2.26
2022-10-17T15:47:32.208Z,2.18
2022-10-17T15:50:05.801Z,2.25
2022-10-17T15:52:33.862Z,2.26
2022-10-17T15:55:04.382Z,2.42
2022-10-17T15:57:39.464Z,2.61
2022-10-17T16:00:09.910Z,2.46
2022-10-17T16:02:39.813Z,2.49
2022-10-17T16:05:17.416Z,2.62
2022-10-17T16:07:46.780Z,2.84
2022-10-17T16:10:18.789Z,2.87
2022-10-17T16:12:50.452Z,2.94
2022-10-17T16:15:32.841Z,3.16
2022-10-17T16:18:05.979Z,3.32
2022-10-17T16:20:38.607Z,3.44
2022-10-17T16:23:07.497Z,3.73
2022-10-17T16:25:38.233Z,3.90
2022-10-17T16:28:07.747Z,4.16
2022-10-17T16:30:41.864Z,4.59
2022-10-17T16:33:09.919Z,4.96
2022-10-17T16:35:40.804Z,5.16
2022-10-17T16:38:08.921Z,5.37
2022-10-17T16:40:39.400Z,5.63
2022-10-17T16:43:08.229Z,5.75
2022-10-17T16:45:37.338Z,5.91
2022-10-17T16:48:07.293Z,6.01
2022-10-17T16:50:41.204Z,6.13
2022-10-17T16:53:08.859Z,6.07
2022-10-17T16:55:36.920Z,5.94
2022-10-17T16:58:05.764Z,5.97
2022-10-17T17:00:33.918Z,6.30
2022-10-17T17:03:03.944Z,6.35
2022-10-17T17:05:31.973Z,6.43
2022-10-17T17:07:59.992Z,6.54
2022-10-17T17:10:28.145Z,6.71
2022-10-17T17:12:56.199Z,6.99
2022-10-17T17:15:24.248Z,6.90
2022-10-17T17:17:55.603Z,7.44
2022-10-17T17:20:24.023Z,7.54
2022-10-17T17:22:52.301Z,7.77
2022-10-17T17:25:20.376Z,7.95
2022-10-17T17:27:48.547Z,7.73
2022-10-17T17:30:16.894Z,7.80
2022-10-17T17:32:44.928Z,7.91
2022-10-17T17:35:13.557Z,7.94
2022-10-17T17:37:41.553Z,8.41
2022-10-17T17:40:10.004Z,8.55
2022-10-17T17:42:38.031Z,8.91
2022-10-17T17:45:06.638Z,8.92
2022-10-17T17:47:34.674Z,9.31
2022-10-17T17:50:06.315Z,9.48
2022-10-17T17:52:37.350Z,9.75
2022-10-17T17:55:11.252Z,9.83
2022-10-17T17:57:39.686Z,10.00
2022-10-17T18:00:08.424Z,9.82
2022-10-17T18:02:42.101Z,9.90
2022-10-17T18:05:12.455Z,10.23
2022-10-17T18:07:40.556Z,10.51
2022-10-17T18:12:45.829Z,10.30
2022-10-17T18:15:13.985Z,10.61
2022-10-17T18:17:42.386Z,10.70
2022-10-17T18:20:13.438Z,11.02
2022-10-17T18:22:44.389Z,11.54
2022-10-17T18:25:12.426Z,11.84
2022-10-17T18:27:40.489Z,12.23
2022-10-17T18:30:09.132Z,11.94
2022-10-17T18:32:39.762Z,11.97
2022-10-17T18:35:10.882Z,11.90
2022-10-17T18:37:38.983Z,12.11
2022-10-17T18:40:07.794Z,12.59
2022-10-17T18:42:35.896Z,12.51
2022-10-17T18:45:04.029Z,12.65
2022-10-17T18:47:32.511Z,12.63
2022-10-17T18:50:00.664Z,13.31
2022-10-17T18:52:28.753Z,13.19
2022-10-17T18:54:56.796Z,12.86
2022-10-17T18:57:26.262Z,13.67
2022-10-17T18:59:54.505Z,13.68
2022-10-17T19:02:22.532Z,14.05
2022-10-17T19:04:50.641Z,14.21
2022-10-17T19:07:21.449Z,14.10
2022-10-17T19:09:49.709Z,13.99
2022-10-17T19:12:20.645Z,14.32
2022-10-17T19:14:51.147Z,14.95
2022-10-17T19:17:19.145Z,15.15
2022-10-17T19:19:50.078Z,14.99
2022-10-17T19:22:18.220Z,15.31
2022-10-17T19:24:49.261Z,16.26
2022-10-17T19:27:20.161Z,16.29
2022-10-17T19:29:48.172Z,16.46
2022-10-17T19:32:18.109Z,16.38
2022-10-17T19:34:48.729Z,15.94
2022-10-17T19:37:16.764Z,16.84
2022-10-17T19:39:50.058Z,16.55
2022-10-17T19:42:21.019Z,16.24
2022-10-17T19:44:49.107Z,15.30
2022-10-17T19:47:17.222Z,15.72
2022-10-17T19:49:49.720Z,16.62
2022-10-17T19:52:18.168Z,17.62
2022-10-17T19:54:46.186Z,17.49
2022-10-17T19:57:14.226Z,16.04
2022-10-17T19:59:42.232Z,16.79
2022-10-17T20:02:13.338Z,17.62
2022-10-17T20:04:49.719Z,18.22
2022-10-17T20:07:29.519Z,17.92
2022-10-17T20:09:57.534Z,18.71
2022-10-17T20:12:25.551Z,19.46
2022-10-17T20:14:53.615Z,19.70
2022-10-17T20:17:24.090Z,20.03
2022-10-17T20:19:52.189Z,18.78
2022-10-17T20:22:20.362Z,19.91
2022-10-17T20:24:48.595Z,19.90
2022-10-17T20:27:19.025Z,20.13
2022-10-17T20:29:47.309Z,20.57
2022-10-17T20:32:15.394Z,19.94
2022-10-17T20:34:43.445Z,19.05
2022-10-17T20:37:11.467Z,19.87
2022-10-17T20:39:40.221Z,19.75
2022-10-17T20:42:08.280Z,20.50
2022-10-17T20:44:36.351Z,19.96
2022-10-17T20:47:16.023Z,19.77
2022-10-17T20:49:44.553Z,21.06
2022-10-17T20:52:13.174Z,21.03
2022-10-17T20:54:42.212Z,20.29
2022-10-17T20:57:10.319Z,20.86
2022-10-17T20:59:41.297Z,20.14
2022-10-17T21:02:13.845Z,20.93
2022-10-17T21:04:46.251Z,22.09
2022-10-17T21:07:16.949Z,21.63
2022-10-17T21:09:45.006Z,21.33
2022-10-17T21:12:18.179Z,21.91
2022-10-17T21:14:56.912Z,21.99
2022-10-17T21:17:25.119Z,21.91
2022-10-17T21:19:53.140Z,22.25
2022-10-17T21:22:26.458Z,22.17
2022-10-17T21:24:54.687Z,21.38
2022-10-17T21:27:22.678Z,20.78
2022-10-17T21:29:50.717Z,22.45
2022-10-17T21:32:31.993Z,21.08
2022-10-17T21:35:07.575Z,20.83
2022-10-17T21:37:35.698Z,20.41
2022-10-17T21:40:03.853Z,21.67
2022-10-17T21:42:34.840Z,20.63
2022-10-17T21:45:10.779Z,21.64
2022-10-17T21:47:55.016Z,22.10
2022-10-17T21:50:29.241Z,21.77
2022-10-17T21:52:59.340Z,22.59
2022-10-17T21:55:27.407Z,22.54
2022-10-17T21:57:55.452Z,22.85
2022-10-17T22:00:23.613Z,21.57
2022-10-17T22:02:51.701Z,21.32
2022-10-17T22:05:19.677Z,22.24
2022-10-17T22:07:48.264Z,21.26
2022-10-17T22:10:16.402Z,22.02
2022-10-17T22:12:44.451Z,26.69
2022-10-17T22:17:42.904Z,29.55
2022-10-17T22:20:11.019Z,30.23
2022-10-17T22:22:39.006Z,24.96
2022-10-17T22:25:10.755Z,24.35
2022-10-17T22:27:38.844Z,24.74
2022-10-17T22:30:07.905Z,26.47
2022-10-17T22:32:38.245Z,27.30
2022-10-17T22:35:06.762Z,28.39
2022-10-17T22:37:34.912Z,26.77
2022-10-17T22:40:03.294Z,25.18
2022-10-17T22:42:33.990Z,23.93
2022-10-17T22:45:04.494Z,22.63
2022-10-17T22:47:32.854Z,23.01
2022-10-17T22:50:01.149Z,22.02
2022-10-17T22:52:29.383Z,22.12
2022-10-17T22:55:00.030Z,21.95
2022-10-17T22:57:30.417Z,21.89
2022-10-17T22:59:58.420Z,21.95
2022-10-17T23:02:26.471Z,21.55
2022-10-17T23:04:57.405Z,21.91
2022-10-17T23:07:25.790Z,22.32
2022-10-17T23:09:53.997Z,21.63
2022-10-17T23:12:22.274Z,21.51
2022-10-17T23:14:53.179Z,22.09
2022-10-17T23:17:21.196Z,22.23
2022-10-17T23:19:50.930Z,24.56
2022-10-17T23:22:21.005Z,27.34
2022-10-17T23:24:49.129Z,27.66
2022-10-17T23:27:17.234Z,29.58
2022-10-17T23:29:45.279Z,27.69
2022-10-17T23:32:13.347Z,28.94
2022-10-17T23:34:43.714Z,28.39
2022-10-17T23:37:12.107Z,23.66
2022-10-17T23:39:43.085Z,22.35
2022-10-17T23:42:11.114Z,23.12
2022-10-17T23:44:39.152Z,22.18
2022-10-17T23:47:07.291Z,21.11
2022-10-17T23:49:35.272Z,21.60
2022-10-17T23:52:06.142Z,21.02
2022-10-17T23:54:34.276Z,20.38
2022-10-17T23:57:02.360Z,20.60
2022-10-17T23:59:30.454Z,19.72
